Time;durP1;ratioP1;P1;durP2;ratioP2;P2;SDS_P1;SDS_P2;PMS_P1;PMS_P2;Temp;Humidity;BMP_temperature;BMP_pressure;BME280_temperature;BME280_humidity;BME280_pressure;Samples;Min_cycle;Max_cycle;Signal;HPM_P1;HPM_P2
2021/11/12 09:37:09;;;;;;;;;;;;;;;14.06;56.54;100489.53;5150397;27;1305;-56
2021/11/12 09:39:36;;;;;;;;;;;;;;;14.20;55.69;100488.59;5150384;27;866;-55
2021/11/12 09:42:04;;;;;;;;;;;;;;;14.25;55.91;100485.41;5131782;27;1325;-55
2021/11/12 09:44:32;;;;;;;;;;;;;;;14.43;55.62;100485.22;5150270;27;1909;-55
2021/11/12 09:46:58;;;;;;;;;;;;;;;14.43;56.33;100484.44;5150194;27;862;-55
2021/11/12 09:49:25;;;;;;;;;;;;;;;14.40;55.68;100474.13;5150140;27;855;-55
2021/11/12 09:51:51;;;;;;;;;;;;;;;14.35;54.55;100469.00;5150096;27;846;-55
2021/11/12 09:54:18;;;;;;;;;;;;;;;14.35;54.98;100480.13;5150043;27;819;-55
2021/11/12 09:56:45;;;;;;;;;;;;;;;14.35;54.50;100469.00;5131391;27;1222;-53
2021/11/12 09:59:12;;;;;;;;;;;;;;;14.36;55.04;100467.78;5149901;27;882;-55
2021/11/12 10:01:40;;;;;;;;;;;;;;;14.29;55.49;100465.88;5150224;27;815;-55
2021/11/12 10:04:11;;;;;;;;;;;;;;;14.21;55.58;100467.94;5150153;27;815;-52
2021/11/12 10:06:39;;;;;;;;;;;;;;;14.14;56.73;100454.09;5149730;27;1882;-54
2021/11/12 10:09:15;;;;;;;;;;;;;;;14.28;56.47;100448.41;5149863;27;866;-51
2021/11/12 10:11:49;;;;;;;;;;;;;;;14.25;56.23;100445.66;5149890;27;1205;-53
2021/11/12 10:14:24;;;;;;;;;;;;;;;14.54;55.00;100446.16;5149626;27;1207;-55
2021/11/12 10:16:57;;;;;;;;;;;;;;;14.60;55.53;100447.31;5149577;27;839;-55
2021/11/12 10:19:25;;;;;;;;;;;;;;;14.77;56.47;100442.75;5150253;27;842;-52
2021/11/12 10:21:53;;;;;;;;;;;;;;;14.83;54.69;100437.50;5149961;27;843;-53
2021/11/12 10:24:22;;;;;;;;;;;;;;;14.85;54.90;100440.66;5149568;27;1889;-52
2021/11/12 10:26:53;;;;;;;;;;;;;;;14.85;54.93;100440.66;5149262;27;811;-54
2021/11/12 10:29:29;;;;;;;;;;;;;;;14.95;55.41;100428.59;5149318;27;1000;-52
2021/11/12 10:32:01;;;;;;;;;;;;;;;14.85;53.76;100435.91;5149336;27;800;-53
2021/11/12 10:34:30;;;;;;;;;;;;;;;14.83;54.68;100431.94;5149541;27;933;-55
2021/11/12 10:37:02;;;;;;;;;;;;;;;14.96;54.38;100419.06;5141721;27;1261;-50
2021/11/12 10:39:31;;;;;;;;;;;;;;;14.98;54.39;100430.56;5135321;27;850;-54
2021/11/12 10:41:59;;;;;;;;;;;;;;;15.07;53.93;100413.34;5135361;27;866;-53
2021/11/12 10:44:25;;;;;;;;;;;;;;;15.20;53.77;100422.72;5135335;27;1952;-55
2021/11/12 10:46:52;;;;;;;;;;;;;;;15.36;53.60;100421.28;5135276;27;811;-55
2021/11/12 10:49:38;;;;;;;;;;;;;;;15.54;52.62;100421.03;5135493;27;902;-54
2021/11/12 10:52:08;;;;;;;;;;;;;;;15.64;52.69;100423.66;5135221;27;933;-54
2021/11/12 10:54:42;;;;;;;;;;;;;;;15.46;53.20;100412.78;5135052;27;881;-55
2021/11/12 10:57:10;;;;;;;;;;;;;;;15.28;52.68;100410.28;5134998;27;882;-52
2021/11/12 10:59:52;;;;;;;;;;;;;;;15.11;53.44;100411.31;5116539;27;1199;-54
2021/11/12 11:02:34;;;;;;;;;;;;;;;15.28;53.82;100410.28;5134909;27;803;-53
2021/11/12 11:05:05;;;;;;;;;;;;;;;15.39;53.00;100412.91;5135092;27;1866;-55
2021/11/12 11:07:32;;;;;;;;;;;;;;;15.46;53.13;100406.41;5134814;27;846;-53
2021/11/12 11:09:59;;;;;;;;;;;;;;;15.68;52.97;100401.28;5116381;27;804;-55
2021/11/12 11:12:39;;;;;;;;;;;;;;;15.97;52.71;100401.63;5134783;27;854;-55
2021/11/12 11:15:23;;;;;;;;;;;;;;;16.12;51.48;100394.59;5134695;27;870;-55
2021/11/12 11:18:00;;;;;;;;;;;;;;;16.12;51.61;100393.81;5134634;27;930;-55
2021/11/12 11:20:30;;;;;;;;;;;;;;;15.97;51.52;100389.69;5134611;27;818;-55
2021/11/12 11:22:59;;;;;;;;;;;;;;;15.66;51.81;100387.81;5134516;27;903;-55
2021/11/12 11:25:27;;;;;;;;;;;;;;;15.54;52.45;100382.81;5134347;27;1897;-55
2021/11/12 11:27:55;;;;;;;;;;;;;;;15.81;52.25;100376.44;5134382;27;905;-55
2021/11/12 11:30:22;;;;;;;;;;;;;;;16.00;51.64;100375.72;5134462;27;822;-53
2021/11/12 11:32:49;;;;;;;;;;;;;;;15.92;51.01;100374.25;5134354;27;827;-54
2021/11/12 11:35:16;;;;;;;;;;;;;;;15.95;51.55;100376.19;5134194;27;1249;-53
2021/11/12 11:37:43;;;;;;;;;;;;;;;16.02;51.76;100364.13;5134286;27;810;-54
2021/11/12 11:40:11;;;;;;;;;;;;;;;16.11;51.38;100365.13;5134265;27;871;-55
2021/11/12 11:42:42;;;;;;;;;;;;;;;16.22;51.30;100366.94;5134129;27;819;-55
2021/11/12 11:45:10;;;;;;;;;;;;;;;16.18;50.34;100355.84;5134574;27;1969;-55
2021/11/12 11:47:38;;;;;;;;;;;;;;;16.23;51.00;100357.34;5134041;27;811;-53
2021/11/12 11:50:25;;;;;;;;;;;;;;;16.21;51.02;100359.78;5133629;27;783;-55
2021/11/12 11:52:52;;;;;;;;;;;;;;;16.34;50.26;100352.34;5134051;27;1166;-55
2021/11/12 11:55:30;;;;;;;;;;;;;;;16.29;50.51;100350.84;5134268;27;862;-55
2021/11/12 11:58:17;;;;;;;;;;;;;;;16.20;50.53;100350.63;5133894;27;791;-55
2021/11/12 12:00:43;;;;;;;;;;;;;;;16.26;50.66;100364.88;5133594;27;921;-55
2021/11/12 12:03:31;;;;;;;;;;;;;;;16.08;50.55;100345.69;5133763;27;807;-54
2021/11/12 12:06:04;;;;;;;;;;;;;;;16.01;50.88;100349.38;5115184;27;1948;-55
2021/11/12 12:08:31;;;;;;;;;;;;;;;16.29;50.89;100345.25;5133651;27;885;-55
2021/11/12 12:11:18;;;;;;;;;;;;;;;16.26;50.42;100345.34;5133553;27;855;-55
2021/11/12 12:13:45;;;;;;;;;;;;;;;16.29;50.06;100334.09;5133334;27;1404;-54
2021/11/12 12:16:21;;;;;;;;;;;;;;;16.08;50.42;100338.09;5133513;27;862;-55
2021/11/12 12:18:49;;;;;;;;;;;;;;;16.02;51.48;100348.16;5133442;27;804;-54
2021/11/12 12:35:43;;;;;;;;;;;;;;;16.94;48.82;100344.75;5132793;27;1124;-55
2021/11/12 12:41:18;;;;;;;;;;;;;;;16.83;49.04;100343.41;5133028;27;649;-55
2021/11/12 13:20:31;;;;;;;;;;;;;;;15.35;53.36;100345.31;5132835;27;602;-56
2021/11/12 13:25:29;;;;;;;;;;;;;;;15.48;52.79;100340.72;5132370;28;1939;-55
2021/11/12 13:28:06;;;;;;;;;;;;;;;15.50;52.93;100338.28;5132447;28;886;-56
2021/11/12 13:30:32;;;;;;;;;;;;;;;15.44;52.79;100342.78;5132372;28;811;-54
2021/11/12 13:33:00;;;;;;;;;;;;;;;15.24;53.37;100341.91;5132708;28;799;-54
2021/11/12 13:35:34;;;;;;;;;;;;;;;15.13;53.72;100346.84;5132042;28;1366;-56
2021/11/12 13:38:01;;;;;;;;;;;;;;;15.09;53.97;100347.69;5132348;28;906;-56
2021/11/12 13:40:31;;;;;;;;;;;;;;;15.00;54.15;100352.19;5132309;28;858;-56
2021/11/12 13:42:58;;;;;;;;;;;;;;;14.86;54.27;100353.97;5132304;28;804;-56
2021/11/12 13:45:25;;;;;;;;;;;;;;;14.74;54.65;100348.97;5132175;28;1909;-56
2021/11/12 13:48:12;;;;;;;;;;;;;;;14.64;54.69;100342.34;5132162;28;831;-56
2021/11/12 13:50:43;;;;;;;;;;;;;;;14.26;55.55;100347.94;5132153;28;1052;-57
2021/11/12 13:53:09;;;;;;;;;;;;;;;13.89;57.08;100343.97;5132017;28;842;-55
2021/11/12 13:55:38;;;;;;;;;;;;;;;13.79;57.47;100342.06;5132132;28;835;-57
2021/11/12 13:58:05;;;;;;;;;;;;;;;13.59;57.72;100343.84;5132134;28;909;-55
2021/11/12 14:00:37;;;;;;;;;;;;;;;13.37;58.43;100352.34;5132061;28;835;-56
2021/11/12 14:03:07;;;;;;;;;;;;;;;13.10;59.48;100346.56;5132845;28;787;-56
2021/11/12 14:08:48;;;;;;;;;;;;;;;12.58;60.62;100340.91;5132140;28;688;-56
2021/11/12 14:11:29;;;;;;;;;;;;;;;12.35;61.27;100346.94;5132088;27;851;-56
2021/11/12 14:14:02;;;;;;;;;;;;;;;12.13;62.13;100347.00;5136514;27;847;-54
2021/11/12 14:16:35;;;;;;;;;;;;;;;11.95;63.08;100347.06;5135876;27;886;-56
2021/11/12 14:21:40;;;;;;;;;;;;;;;11.49;64.20;100347.84;5135652;27;755;-56
2021/11/12 14:29:41;;;;;;;;;;;;;;;10.82;66.64;100352.88;5135599;27;728;-56
2021/11/12 14:35:13;;;;;;;;;;;;;;;10.35;67.40;100362.97;5135598;27;1257;-55
2021/11/12 14:43:11;;;;;;;;;;;;;;;9.57;69.85;100361.25;5135336;27;728;-53
2021/11/12 14:45:40;;;;;;;;;;;;;;;9.26;70.40;100364.50;5135203;27;1971;-53
2021/11/12 14:48:20;;;;;;;;;;;;;;;8.96;71.25;100365.41;5135275;27;812;-54
2021/11/12 14:53:36;;;;;;;;;;;;;;;8.48;73.07;100370.75;5135196;27;653;-54
2021/11/12 14:56:07;;;;;;;;;;;;;;;8.28;74.02;100375.56;5135146;27;823;-54
2021/11/12 14:58:35;;;;;;;;;;;;;;;8.08;74.25;100380.41;5135040;27;882;-54
2021/11/12 15:01:06;;;;;;;;;;;;;;;7.92;75.38;100386.09;5134925;27;870;-53
2021/11/12 15:03:34;;;;;;;;;;;;;;;7.87;76.18;100381.72;5134980;27;865;-54
2021/11/12 15:06:01;;;;;;;;;;;;;;;7.69;76.51;100380.63;5134808;27;1942;-54
2021/11/12 15:08:29;;;;;;;;;;;;;;;7.56;77.31;100383.56;5134831;27;862;-54
2021/11/12 15:10:56;;;;;;;;;;;;;;;7.41;78.09;100380.94;5135127;27;843;-54
2021/11/12 15:13:24;;;;;;;;;;;;;;;7.27;78.38;100382.28;5134787;27;878;-54
2021/11/12 15:15:52;;;;;;;;;;;;;;;7.09;78.37;100390.22;5134900;27;855;-54
2021/11/12 15:21:28;;;;;;;;;;;;;;;6.90;80.23;100388.28;5134576;27;641;-53
2021/11/12 15:24:01;;;;;;;;;;;;;;;6.81;81.24;100389.69;5134914;27;1041;-53
2021/11/12 15:26:43;;;;;;;;;;;;;;;6.73;81.47;100388.72;5134476;27;1885;-54
2021/11/12 15:29:17;;;;;;;;;;;;;;;6.61;81.82;100391.63;5135049;27;870;-53
2021/11/12 15:34:11;;;;;;;;;;;;;;;6.39;83.07;100387.63;5134377;27;805;-54
2021/11/12 15:36:45;;;;;;;;;;;;;;;6.24;82.76;100390.06;5134066;27;1405;-53
2021/11/12 15:39:19;;;;;;;;;;;;;;;6.02;83.33;100383.31;5134265;27;870;-52
2021/11/12 15:44:37;;;;;;;;;;;;;;;5.76;84.56;100389.34;5134068;27;1914;-54
2021/11/12 15:53:22;;;;;;;;;;;;;;;5.72;85.05;100393.94;5126823;27;1122;-54
2021/11/12 16:09:10;;;;;;;;;;;;;;;5.49;85.64;100405.53;5133597;27;904;-53
2021/11/12 16:11:58;;;;;;;;;;;;;;;5.45;86.70;100406.59;5133646;27;831;-53
2021/11/12 16:14:30;;;;;;;;;;;;;;;5.43;86.83;100406.94;5133594;27;855;-54
2021/11/12 16:29:27;;;;;;;;;;;;;;;5.25;86.88;100420.19;5133647;27;669;-53
2021/11/12 16:31:54;;;;;;;;;;;;;;;5.18;87.40;100422.72;5133206;27;890;-54
2021/11/12 16:34:24;;;;;;;;;;;;;;;5.19;87.86;100424.31;5114114;28;1353;-54
2021/11/12 16:37:01;;;;;;;;;;;;;;;5.20;87.79;100428.66;5132951;27;1283;-54
2021/11/12 16:39:34;;;;;;;;;;;;;;;5.28;88.19;100433.19;5133080;27;827;-53
2021/11/12 16:44:39;;;;;;;;;;;;;;;5.31;88.12;100434.41;5132987;27;736;-53
2021/11/12 16:47:21;;;;;;;;;;;;;;;5.29;88.62;100429.31;5133032;27;847;-51
2021/11/12 17:04:30;;;;;;;;;;;;;;;5.28;89.16;100433.19;5133087;27;617;-54
2021/11/12 17:09:42;;;;;;;;;;;;;;;5.25;89.26;100435.84;5132657;27;700;-54
2021/11/12 17:20:36;;;;;;;;;;;;;;;5.21;89.70;100437.69;5132545;27;653;-52
2021/11/12 17:48:10;;;;;;;;;;;;;;;4.94;91.39;100423.63;5135706;27;867;-53
2021/11/12 17:54:08;;;;;;;;;;;;;;;4.79;90.91;100427.91;5111966;27;1220;-53
2021/11/12 18:02:08;;;;;;;;;;;;;;;4.44;90.30;100427.69;5136547;27;622;-53
2021/11/12 18:09:52;;;;;;;;;;;;;;;4.37;90.93;100424.72;5135923;27;788;-52
